Time;durP1;ratioP1;P1;durP2;ratioP2;P2;SDS_P1;SDS_P2;PMS_P1;PMS_P2;Temp;Humidity;BMP_temperature;BMP_pressure;BME280_temperature;BME280_humidity;BME280_pressure;Samples;Min_cycle;Max_cycle;Signal;HPM_P1;HPM_P2
2021/07/05 00:02:03;;;;;;;15.82;3.05;;;;;;;10.47;91.43;99888.34;4994010;28;19921;-81
2021/07/05 00:04:29;;;;;;;10.60;2.55;;;;;;;10.47;91.43;99890.22;4979077;28;20026;-81
2021/07/05 00:06:54;;;;;;;9.82;3.25;;;;;;;10.48;91.04;99892.72;4978967;28;20479;-81
2021/07/05 00:09:19;;;;;;;11.45;2.70;;;;;;;10.47;91.08;99885.66;4979449;28;20515;-81
2021/07/05 00:11:45;;;;;;;17.20;2.92;;;;;;;10.46;91.04;99886.69;5001217;28;20037;-81
2021/07/05 00:14:10;;;;;;;9.43;2.40;;;;;;;10.52;91.02;99890.44;4974470;28;20026;-81
2021/07/05 00:16:37;;;;;;;7.40;2.47;;;;;;;10.50;90.73;99889.81;4975223;28;20022;-81
2021/07/05 00:19:03;;;;;;;16.67;3.00;;;;;;;10.47;91.01;99885.66;4977510;28;20487;-81
2021/07/05 00:21:28;;;;;;;13.07;2.55;;;;;;;10.42;90.42;99884.59;4975916;28;20034;-81
2021/07/05 00:23:53;;;;;;;15.80;2.72;;;;;;;10.45;90.58;99885.03;4977645;28;20022;-81
2021/07/05 00:26:19;;;;;;;7.22;2.38;;;;;;;10.39;90.14;99875.06;4997441;28;20033;-81
2021/07/05 00:28:44;;;;;;;5.65;2.00;;;;;;;10.41;90.12;99894.50;4993348;28;20053;-81
2021/07/05 00:31:10;;;;;;;6.38;1.92;;;;;;;10.33;89.69;99886.59;4955816;28;20034;-81
2021/07/05 00:33:36;;;;;;;8.85;2.10;;;;;;;10.34;89.82;99888.25;4978690;28;20959;-81
2021/07/05 00:36:02;;;;;;;17.10;3.10;;;;;;;10.29;90.01;99886.16;4978342;28;20368;-81
2021/07/05 00:38:28;;;;;;;9.57;2.38;;;;;;;10.18;90.35;99867.84;4978372;28;20026;-81
2021/07/05 00:40:53;;;;;;;8.43;2.25;;;;;;;10.17;90.09;99874.25;4978381;28;20033;-81
2021/07/05 00:43:18;;;;;;;8.52;2.75;;;;;;;10.23;90.12;99892.28;4977064;28;20077;-81
2021/07/05 00:45:44;;;;;;;7.93;2.33;;;;;;;10.13;90.28;99867.59;4975919;28;20108;-81
2021/07/05 00:48:10;;;;;;;10.65;2.70;;;;;;;10.15;90.19;99878.16;4991084;28;20045;-81
2021/07/05 00:50:36;;;;;;;15.50;2.75;;;;;;;10.12;90.64;99877.53;4977218;28;20113;-81
2021/07/05 00:53:02;;;;;;;5.63;1.98;;;;;;;10.08;90.25;99870.91;4971321;28;20026;-81
2021/07/05 00:55:29;;;;;;;8.00;1.95;;;;;;;10.16;90.27;99874.44;4975396;28;20487;-81
2021/07/05 00:57:54;;;;;;;6.00;2.00;;;;;;;10.10;90.06;99871.50;4981086;28;20474;-81
2021/07/05 01:00:23;;;;;;;9.20;2.05;;;;;;;9.98;89.29;99861.50;4988886;28;20033;-81
2021/07/05 01:02:50;;;;;;;8.50;2.05;;;;;;;10.01;89.21;99870.00;4976051;28;20048;-81
2021/07/05 01:05:16;;;;;;;13.38;2.13;;;;;;;9.90;89.62;99862.47;4977406;28;20022;-81
2021/07/05 01:07:43;;;;;;;10.25;2.13;;;;;;;9.92;89.74;99871.16;4974570;28;20037;-81
2021/07/05 01:10:09;;;;;;;6.20;2.00;;;;;;;9.86;89.33;99875.44;4992824;28;20483;-81
2021/07/05 01:12:35;;;;;;;11.60;3.42;;;;;;;9.81;89.62;99874.34;4963485;28;20030;-81
2021/07/05 01:15:01;;;;;;;9.43;1.88;;;;;;;9.81;89.96;99875.19;4979171;28;20442;-81
2021/07/05 01:17:26;;;;;;;7.00;1.90;;;;;;;9.74;89.72;99868.09;4982474;28;20100;-81
2021/07/05 01:19:52;;;;;;;5.88;1.67;;;;;;;9.69;89.67;99872.19;4986817;28;20145;-81
2021/07/05 01:22:18;;;;;;;9.60;2.20;;;;;;;9.71;89.19;99882.72;4992012;28;20014;-81
2021/07/05 01:24:45;;;;;;;8.98;2.17;;;;;;;9.60;89.02;99875.19;4999121;28;20076;-81
2021/07/05 01:27:11;;;;;;;6.10;1.83;;;;;;;9.61;89.52;99885.75;4977476;28;20033;-81
2021/07/05 01:29:38;;;;;;;6.15;2.28;;;;;;;9.57;89.54;99880.94;4983245;28;20030;-81
2021/07/05 01:32:04;;;;;;;4.13;1.80;;;;;;;9.50;89.52;99888.06;4982238;28;20049;-81
2021/07/05 01:34:29;;;;;;;6.75;1.70;;;;;;;9.53;90.15;99888.53;4958533;28;20034;-81
2021/07/05 01:36:55;;;;;;;5.70;1.63;;;;;;;9.52;90.00;99883.34;4965148;28;20996;-81
2021/07/05 01:39:21;;;;;;;5.57;1.55;;;;;;;9.52;90.01;99878.81;4960793;28;20041;-81
2021/07/05 01:41:47;;;;;;;4.15;1.13;;;;;;;9.52;89.68;99881.50;4953495;28;20034;-82
2021/07/05 01:44:13;;;;;;;4.85;1.25;;;;;;;9.53;89.59;99877.00;4968158;28;20023;-82
2021/07/05 01:46:39;;;;;;;2.20;1.05;;;;;;;9.51;89.06;99879.84;4986205;28;20073;-81
2021/07/05 01:49:05;;;;;;;5.25;1.55;;;;;;;9.44;89.30;99868.19;4969997;28;20069;-81
2021/07/05 01:51:30;;;;;;;5.47;1.23;;;;;;;9.38;89.27;99868.97;4955819;28;20062;-81
2021/07/05 01:53:56;;;;;;;4.60;1.10;;;;;;;9.32;89.08;99861.69;4980095;28;20542;-81
2021/07/05 01:56:21;;;;;;;5.25;0.98;;;;;;;9.17;89.26;99851.00;4956112;28;20804;-81
2021/07/05 01:58:47;;;;;;;2.47;0.70;;;;;;;9.16;89.04;99850.16;4964921;28;20026;-81
2021/07/05 02:01:13;;;;;;;2.45;0.60;;;;;;;9.24;89.89;99868.00;4963756;28;20026;-82
2021/07/05 02:03:38;;;;;;;3.47;1.20;;;;;;;8.91;89.75;99814.78;4972701;28;20022;-81
2021/07/05 02:06:03;;;;;;;2.50;0.70;;;;;;;9.17;89.89;99848.31;4957912;28;20023;-82
2021/07/05 02:08:29;;;;;;;1.83;0.82;;;;;;;9.24;90.08;99865.31;4956936;28;20033;-81
2021/07/05 02:10:54;;;;;;;2.50;1.20;;;;;;;9.19;89.83;99857.00;4964882;28;20030;-81
2021/07/05 02:13:23;;;;;;;5.50;1.30;;;;;;;9.25;89.67;99856.25;4980232;28;20902;-81
2021/07/05 02:15:50;;;;;;;5.35;1.42;;;;;;;9.19;90.03;99839.06;4966780;28;20177;-81
2021/07/05 02:18:17;;;;;;;2.92;1.48;;;;;;;9.24;90.13;99843.88;4974329;28;20022;-82
2021/07/05 02:20:44;;;;;;;3.95;1.60;;;;;;;9.33;89.78;99864.16;4959508;28;21713;-81
2021/07/05 02:23:12;;;;;;;4.95;1.77;;;;;;;9.39;90.04;99851.84;4996283;28;20026;-81
2021/07/05 02:25:38;;;;;;;6.63;2.15;;;;;;;9.41;90.22;99865.91;4984973;28;20427;-81
2021/07/05 02:28:09;;;;;;;9.27;2.13;;;;;;;9.43;90.33;99853.97;4976527;28;20026;-81
2021/07/05 02:30:36;;;;;;;4.45;1.92;;;;;;;9.49;90.29;99863.09;4981814;28;20059;-81
2021/07/05 02:33:02;;;;;;;7.05;2.60;;;;;;;9.44;90.16;99854.78;4985459;28;20165;-81
2021/07/05 02:35:29;;;;;;;9.55;2.30;;;;;;;9.42;90.49;99854.13;4998865;28;20050;-81
2021/07/05 02:37:55;;;;;;;7.07;2.08;;;;;;;9.44;90.73;99854.78;4974127;28;20483;-81
2021/07/05 02:40:25;;;;;;;9.85;2.42;;;;;;;9.49;90.37;99856.91;4950508;28;20109;-82
2021/07/05 02:42:51;;;;;;;6.00;2.20;;;;;;;9.42;90.16;99852.31;4987461;28;20030;-82
2021/07/05 02:45:22;;;;;;;11.02;2.47;;;;;;;9.48;90.71;99855.25;4945504;28;20030;-82
2021/07/05 02:47:52;;;;;;;6.32;2.20;;;;;;;9.46;90.64;99852.75;4976731;28;20165;-81
2021/07/05 02:50:19;;;;;;;6.78;2.17;;;;;;;9.39;90.48;99843.78;4970888;28;20035;-82
2021/07/05 02:52:45;;;;;;;8.13;1.90;;;;;;;9.47;90.68;99854.41;4977525;28;20117;-81
2021/07/05 02:55:11;;;;;;;11.65;2.58;;;;;;;9.51;90.67;99855.69;4976952;28;20510;-79
2021/07/05 02:57:37;;;;;;;5.28;2.25;;;;;;;9.52;90.32;99851.16;4993705;28;20507;-82
2021/07/05 03:00:24;;;;;;;5.63;2.10;;;;;;;9.52;90.30;99856.53;4975554;28;20015;-80
2021/07/05 03:02:50;;;;;;;6.32;2.53;;;;;;;9.50;89.73;99855.88;4965080;28;20023;-81
2021/07/05 03:05:18;;;;;;;6.72;2.58;;;;;;;9.45;89.85;99846.56;4960512;28;20053;-80
2021/07/05 03:07:44;;;;;;;7.53;2.35;;;;;;;9.27;89.92;99838.13;4969915;28;20114;-82
2021/07/05 03:10:12;;;;;;;8.27;2.53;;;;;;;9.32;89.75;99845.59;4973771;28;20030;-81
2021/07/05 03:12:38;;;;;;;8.15;2.60;;;;;;;9.34;90.04;99843.53;4977602;28;20041;-81
2021/07/05 03:15:06;;;;;;;9.95;2.63;;;;;;;9.32;90.07;99841.06;4996996;28;20026;-79
2021/07/05 03:17:31;;;;;;;12.38;2.47;;;;;;;9.26;90.23;99839.13;4993077;28;20030;-81
2021/07/05 03:19:57;;;;;;;7.75;2.85;;;;;;;9.29;90.04;99846.81;4976957;28;20030;-81
2021/07/05 03:22:22;;;;;;;4.28;2.30;;;;;;;9.22;89.83;99830.63;4978653;28;20025;-81
2021/07/05 03:24:48;;;;;;;6.72;2.20;;;;;;;9.28;90.03;99839.75;4983894;28;20015;-82
2021/07/05 03:27:13;;;;;;;4.60;2.13;;;;;;;9.29;89.99;99835.22;4994115;28;20076;-81
2021/07/05 03:29:39;;;;;;;5.57;2.28;;;;;;;9.29;89.96;99837.91;4978633;28;20069;-81
2021/07/05 03:32:05;;;;;;;3.67;2.05;;;;;;;9.27;90.35;99832.75;5003824;28;20422;-81
2021/07/05 03:34:31;;;;;;;7.28;1.92;;;;;;;9.22;89.87;99840.53;4983128;28;20121;-80
2021/07/05 03:36:57;;;;;;;5.13;2.70;;;;;;;9.14;89.48;99821.88;4993819;28;20069;-80
2021/07/05 03:39:23;;;;;;;11.48;3.63;;;;;;;9.13;89.64;99834.47;4983488;28;20026;-81
2021/07/05 03:41:48;;;;;;;12.48;4.80;;;;;;;9.08;89.64;99828.00;4967432;28;20057;-80
2021/07/05 03:44:14;;;;;;;16.33;4.63;;;;;;;9.00;89.45;99827.09;4980780;28;20063;-81
2021/07/05 03:46:40;;;;;;;12.85;3.92;;;;;;;8.94;89.84;99829.69;4983381;28;20080;-83
2021/07/05 03:49:05;;;;;;;14.75;4.20;;;;;;;8.80;90.31;99818.78;4975589;28;20031;-83
2021/07/05 03:51:32;;;;;;;12.40;4.00;;;;;;;8.77;90.44;99819.16;4982839;28;20077;-82
2021/07/05 03:53:57;;;;;;;10.00;3.28;;;;;;;8.76;90.59;99820.19;4964624;28;20061;-82
2021/07/05 03:56:23;;;;;;;7.55;2.60;;;;;;;8.80;90.41;99826.00;4976592;28;20022;-82
2021/07/05 03:58:48;;;;;;;7.70;2.67;;;;;;;8.77;90.23;99821.84;4982096;28;20022;-82
2021/07/05 04:01:14;;;;;;;7.07;2.60;;;;;;;8.70;90.05;99806.69;4983571;28;20018;-82
2021/07/05 04:03:39;;;;;;;6.25;2.38;;;;;;;8.69;90.49;99815.78;4982505;28;20029;-82
2021/07/05 04:06:04;;;;;;;7.72;2.10;;;;;;;8.67;90.77;99810.59;4975616;28;20592;-83
2021/07/05 04:08:33;;;;;;;5.63;2.08;;;;;;;8.72;90.96;99818.06;4966755;28;21849;-82
2021/07/05 04:10:58;;;;;;;8.85;2.17;;;;;;;8.66;90.61;99803.56;4980093;28;20030;-82
2021/07/05 04:13:26;;;;;;;4.50;1.80;;;;;;;8.78;90.18;99818.13;4984089;28;20042;-82
2021/07/05 04:15:52;;;;;;;10.73;1.98;;;;;;;8.65;90.49;99795.72;4982462;28;20070;-82
2021/07/05 04:18:17;;;;;;;6.05;2.20;;;;;;;8.78;90.26;99823.50;4975647;28;20034;-82
2021/07/05 04:20:43;;;;;;;5.25;2.00;;;;;;;8.62;89.90;99804.94;4980538;28;20480;-82
2021/07/05 04:23:09;;;;;;;6.47;1.83;;;;;;;8.71;90.31;99822.59;4976233;28;20030;-82
2021/07/05 04:25:35;;;;;;;4.28;1.80;;;;;;;8.69;90.13;99815.78;4997885;28;20475;-83
2021/07/05 04:28:01;;;;;;;11.23;2.17;;;;;;;8.71;90.35;99819.09;4976086;28;20022;-82
2021/07/05 04:30:27;;;;;;;4.43;1.52;;;;;;;8.64;90.12;99812.81;4981864;28;20117;-83
2021/07/05 04:32:52;;;;;;;3.95;1.90;;;;;;;8.58;90.09;99801.81;4979337;28;20037;-82
2021/07/05 04:35:19;;;;;;;7.07;1.67;;;;;;;8.69;90.54;99824.63;4961835;28;20443;-82
2021/07/05 04:37:46;;;;;;;4.90;1.50;;;;;;;8.71;89.64;99822.59;4981462;28;20030;-82
2021/07/05 04:40:14;;;;;;;8.70;1.60;;;;;;;8.56;89.99;99801.16;4970406;28;20035;-82
2021/07/05 04:42:40;;;;;;;1.73;1.10;;;;;;;8.61;89.67;99814.03;4960273;28;20121;-82
2021/07/05 04:45:07;;;;;;;1.85;0.95;;;;;;;8.60;89.79;99820.41;4972941;28;20530;-82
2021/07/05 04:47:33;;;;;;;2.92;1.08;;;;;;;8.59;90.16;99819.56;4973795;28;20440;-82
2021/07/05 04:49:58;;;;;;;3.22;1.20;;;;;;;8.55;89.73;99804.06;4965402;28;20026;-82
2021/07/05 04:52:24;;;;;;;4.28;1.30;;;;;;;8.54;89.83;99815.78;4978546;28;20045;-82
2021/07/05 04:54:49;;;;;;;3.47;1.10;;;;;;;8.59;89.94;99824.09;4996953;28;20096;-83
2021/07/05 04:57:15;;;;;;;3.97;1.70;;;;;;;8.57;89.60;99826.97;4967365;28;20400;-82
2021/07/05 04:59:40;;;;;;;5.20;2.28;;;;;;;8.52;90.02;99823.16;4970044;28;20502;-81
2021/07/05 05:02:06;;;;;;;7.82;2.92;;;;;;;8.42;90.03;99811.91;4984267;28;20060;-82
2021/07/05 05:04:31;;;;;;;7.38;2.65;;;;;;;8.47;89.58;99820.22;4954526;28;20062;-81
2021/07/05 05:06:57;;;;;;;7.45;2.15;;;;;;;8.36;89.40;99802.72;4974620;28;20022;-80
2021/07/05 05:09:24;;;;;;;7.57;2.40;;;;;;;8.42;89.62;99806.56;4973451;28;20064;-82
2021/07/05 05:11:51;;;;;;;5.70;2.03;;;;;;;8.47;89.54;99818.38;4982952;28;20041;-83
2021/07/05 05:14:17;;;;;;;2.95;1.58;;;;;;;8.40;89.43;99801.38;4974330;28;20045;-81
2021/07/05 05:16:43;;;;;;;3.00;1.40;;;;;;;8.36;89.15;99800.03;4958681;28;20026;-82
2021/07/05 05:19:08;;;;;;;4.65;1.50;;;;;;;8.41;89.54;99805.69;4985976;28;20033;-83
2021/07/05 05:21:34;;;;;;;3.03;1.50;;;;;;;8.53;90.07;99814.13;4964103;28;20103;-82
2021/07/05 05:24:01;;;;;;;2.80;1.10;;;;;;;8.51;90.18;99802.75;4968344;28;20022;-82
2021/07/05 05:26:26;;;;;;;5.28;1.30;;;;;;;8.50;90.53;99798.41;4976851;28;20387;-83
2021/07/05 05:28:52;;;;;;;2.28;1.35;;;;;;;8.63;91.05;99803.13;4972304;28;20026;-82
2021/07/05 05:31:18;;;;;;;2.97;1.23;;;;;;;8.67;91.10;99815.94;4964240;28;20030;-81
2021/07/05 05:33:43;;;;;;;6.85;1.80;;;;;;;8.72;91.49;99808.19;4990388;28;20113;-81
2021/07/05 05:36:09;;;;;;;8.70;2.10;;;;;;;8.89;91.60;99816.00;4997392;28;20038;-83
2021/07/05 05:38:35;;;;;;;8.18;2.50;;;;;;;9.01;91.31;99804.59;4991340;28;20030;-82
2021/07/05 05:41:01;;;;;;;8.07;2.05;;;;;;;9.10;91.05;99799.13;4979530;28;20022;-83
2021/07/05 05:43:26;;;;;;;13.38;2.35;;;;;;;9.16;90.92;99799.22;4962534;28;20114;-83
2021/07/05 05:45:51;;;;;;;7.70;2.33;;;;;;;9.19;91.12;99781.91;4976511;28;20395;-82
2021/07/05 05:48:17;;;;;;;9.70;1.95;;;;;;;9.19;91.33;99780.06;4968769;28;20027;-83
2021/07/05 05:50:42;;;;;;;5.43;1.80;;;;;;;9.34;91.11;99795.25;4986819;28;20022;-80
2021/07/05 05:53:08;;;;;;;6.93;2.15;;;;;;;9.48;91.09;99793.53;4973391;28;20068;-81
2021/07/05 05:55:33;;;;;;;6.78;1.95;;;;;;;9.55;91.05;99791.72;4990397;28;20030;-81
2021/07/05 05:57:59;;;;;;;5.82;2.03;;;;;;;9.55;91.22;99787.22;4978573;28;20026;-82
2021/07/05 06:00:25;;;;;;;5.22;1.77;;;;;;;9.61;90.97;99785.59;4986201;28;20022;-81
2021/07/05 06:02:52;;;;;;;9.07;2.40;;;;;;;9.66;91.28;99784.00;4986292;28;20091;-83
2021/07/05 06:05:18;;;;;;;5.65;2.05;;;;;;;9.74;91.12;99784.88;4946021;28;20034;-82
2021/07/05 06:07:49;;;;;;;4.65;1.92;;;;;;;9.74;91.13;99780.34;4980093;28;20027;-82
2021/07/05 06:10:17;;;;;;;7.07;2.25;;;;;;;9.82;91.12;99779.38;4974311;28;20119;-82
2021/07/05 06:12:43;;;;;;;7.55;2.78;;;;;;;9.96;91.36;99799.94;4975714;28;20375;-81
2021/07/05 06:15:09;;;;;;;6.65;2.50;;;;;;;10.13;90.75;99787.88;4999261;28;20057;-81
2021/07/05 06:17:35;;;;;;;7.28;2.28;;;;;;;10.27;90.47;99793.31;4956069;28;20105;-80
2021/07/05 06:20:02;;;;;;;4.75;1.92;;;;;;;10.39;90.87;99794.44;4966572;28;20022;-81
2021/07/05 06:22:31;;;;;;;9.88;2.70;;;;;;;10.59;90.15;99782.97;4950698;28;20022;-80
2021/07/05 06:24:57;;;;;;;6.72;2.70;;;;;;;10.82;90.07;99786.16;4965095;28;20117;-80
2021/07/05 06:27:23;;;;;;;10.00;3.65;;;;;;;10.95;89.68;99794.28;4970247;28;20086;-81
2021/07/05 06:29:49;;;;;;;9.77;2.70;;;;;;;10.95;89.71;99775.44;4975787;28;20034;-80
2021/07/05 06:32:14;;;;;;;13.27;2.92;;;;;;;11.00;89.78;99774.84;4992453;28;20030;-82
2021/07/05 06:34:41;;;;;;;11.10;3.08;;;;;;;10.90;89.71;99759.13;4957923;28;20042;-80
2021/07/05 06:37:07;;;;;;;15.00;2.97;;;;;;;11.11;89.45;99785.00;4969213;28;20034;-82
2021/07/05 06:39:32;;;;;;;9.75;2.80;;;;;;;11.11;89.93;99781.50;4970445;28;20487;-80
2021/07/05 06:41:58;;;;;;;10.55;3.08;;;;;;;11.18;89.79;99776.97;4968810;28;20037;-80
2021/07/05 06:44:23;;;;;;;11.60;2.70;;;;;;;11.22;89.61;99789.00;4977475;28;20033;-80
2021/07/05 06:46:49;;;;;;;8.73;2.80;;;;;;;11.32;89.98;99780.50;4977963;28;20029;-79
2021/07/05 06:49:18;;;;;;;8.25;2.72;;;;;;;11.35;90.12;99775.56;4995414;28;20137;-80
2021/07/05 06:51:47;;;;;;;8.30;2.80;;;;;;;11.44;90.00;99774.31;4977231;28;20391;-80
2021/07/05 06:54:12;;;;;;;6.93;2.80;;;;;;;11.57;89.99;99772.69;4983432;28;20069;-81
2021/07/05 06:56:38;;;;;;;10.10;2.97;;;;;;;11.77;89.42;99767.28;4961525;28;20069;-82
2021/07/05 06:59:04;;;;;;;9.73;2.92;;;;;;;11.92;89.13;99769.78;4977663;28;20022;-81
2021/07/05 07:01:29;;;;;;;12.18;3.92;;;;;;;12.11;88.62;99760.84;4981971;28;20026;-80
2021/07/05 07:03:55;;;;;;;13.52;5.00;;;;;;;12.10;88.41;99764.59;4965979;28;20030;-81
2021/07/05 07:06:21;;;;;;;10.30;3.88;;;;;;;12.26;87.62;99771.41;4977350;28;20022;-82
2021/07/05 07:08:47;;;;;;;10.38;3.40;;;;;;;12.23;87.91;99763.75;4979795;28;20034;-82
2021/07/05 07:11:13;;;;;;;12.27;3.47;;;;;;;12.30;87.66;99775.31;4977555;28;20030;-81
2021/07/05 07:13:39;;;;;;;11.23;3.42;;;;;;;12.15;87.81;99772.06;4960870;28;20030;-81
2021/07/05 07:16:05;;;;;;;7.18;2.80;;;;;;;12.14;88.12;99778.47;4976983;28;20093;-80
2021/07/05 07:21:05;;;;;;;12.23;4.03;;;;;;;12.04;88.43;99770.81;4984508;28;20038;-81
2021/07/05 07:23:30;;;;;;;10.55;4.82;;;;;;;12.08;88.68;99780.13;4981072;28;20506;-80
2021/07/05 07:25:56;;;;;;;10.45;4.00;;;;;;;12.04;88.71;99766.25;4983234;28;20034;-82
2021/07/05 07:28:21;;;;;;;15.93;4.60;;;;;;;12.12;88.77;99769.75;4979238;28;20025;-81
2021/07/05 07:30:47;;;;;;;10.13;4.65;;;;;;;12.17;89.10;99775.34;4990455;28;20026;-81
2021/07/05 07:33:12;;;;;;;12.30;4.95;;;;;;;12.23;88.74;99769.94;4977092;28;20045;-82
2021/07/05 07:35:38;;;;;;;10.50;4.38;;;;;;;12.33;88.41;99772.19;4959534;28;20022;-81
2021/07/05 07:38:04;;;;;;;8.30;4.25;;;;;;;12.22;88.57;99732.41;4963650;28;20037;-81
2021/07/05 07:40:34;;;;;;;8.77;4.75;;;;;;;12.68;87.93;99766.50;4977426;28;20479;-81
2021/07/05 07:42:59;;;;;;;12.38;4.38;;;;;;;12.89;87.44;99757.28;4993374;28;20049;-81
2021/07/05 07:45:25;;;;;;;9.90;4.15;;;;;;;13.01;86.92;99744.75;4984564;28;20101;-82
2021/07/05 07:47:51;;;;;;;14.80;5.10;;;;;;;13.05;86.80;99745.97;4994057;28;20734;-80
2021/07/05 07:50:18;;;;;;;10.13;4.22;;;;;;;13.09;86.65;99755.28;4969545;28;21237;-81
2021/07/05 07:52:43;;;;;;;11.65;4.80;;;;;;;13.02;86.60;99749.13;4978321;28;20117;-80
2021/07/05 07:55:11;;;;;;;16.35;4.78;;;;;;;13.03;86.58;99755.31;4960061;28;20496;-82
2021/07/05 07:57:37;;;;;;;13.27;4.60;;;;;;;13.02;86.67;99738.31;4971321;28;20023;-82
2021/07/05 08:00:08;;;;;;;11.38;4.18;;;;;;;12.87;86.55;99706.22;4961762;28;20026;-81
2021/07/05 08:02:34;;;;;;;8.52;3.17;;;;;;;13.22;86.51;99742.75;4964012;28;20030;-81
2021/07/05 08:04:59;;;;;;;12.40;4.43;;;;;;;13.34;85.97;99749.97;4965194;28;20077;-80
2021/07/05 08:07:25;;;;;;;9.43;3.47;;;;;;;13.40;85.78;99742.88;4994613;28;20438;-82
2021/07/05 08:09:50;;;;;;;10.20;3.70;;;;;;;13.54;84.75;99738.19;4992504;28;20072;-81
2021/07/05 08:12:16;;;;;;;7.53;3.78;;;;;;;13.48;84.82;99731.78;4960885;28;20113;-81
2021/07/05 08:14:41;;;;;;;9.80;3.75;;;;;;;13.36;84.57;99728.97;4973210;28;20034;-83
2021/07/05 08:17:07;;;;;;;8.50;3.78;;;;;;;13.29;84.88;99740.88;4963259;28;20550;-82
2021/07/05 08:19:32;;;;;;;11.25;4.25;;;;;;;13.30;85.28;99753.31;4982357;28;20052;-81
2021/07/05 08:21:58;;;;;;;6.65;3.55;;;;;;;13.29;84.92;99743.56;4964189;28;20022;-83
2021/07/05 08:24:23;;;;;;;9.02;3.70;;;;;;;13.44;84.29;99738.66;4977562;28;20032;-82
2021/07/05 08:26:49;;;;;;;11.98;3.75;;;;;;;13.58;83.93;99748.31;4957032;28;20085;-82
2021/07/05 08:29:14;;;;;;;9.00;3.20;;;;;;;13.92;83.06;99735.38;4954387;28;20401;-81
2021/07/05 08:31:40;;;;;;;8.20;3.20;;;;;;;14.25;82.52;99737.72;4964883;28;20085;-81
2021/07/05 08:34:05;;;;;;;5.28;2.88;;;;;;;14.01;81.81;99727.78;4987160;28;20085;-81
2021/07/05 08:36:30;;;;;;;9.50;3.30;;;;;;;13.93;82.23;99734.31;4944726;28;20418;-81
2021/07/05 08:38:56;;;;;;;9.15;3.38;;;;;;;14.01;81.54;99728.59;4959613;28;20435;-82
2021/07/05 08:41:21;;;;;;;9.23;3.80;;;;;;;14.24;80.20;99721.72;4985117;28;20022;-81
2021/07/05 08:43:48;;;;;;;11.02;3.58;;;;;;;14.66;78.71;99736.22;4988498;28;20490;-81
2021/07/05 08:46:17;;;;;;;6.38;3.13;;;;;;;14.80;77.85;99733.34;4987854;28;20481;-81
2021/07/05 08:48:43;;;;;;;7.07;3.30;;;;;;;14.74;77.08;99732.38;4988810;28;20034;-81
2021/07/05 08:51:15;;;;;;;6.13;2.95;;;;;;;14.64;77.60;99737.50;4956532;28;20024;-82
2021/07/05 08:53:42;;;;;;;6.32;2.75;;;;;;;14.65;77.83;99728.31;4988559;28;20030;-81
2021/07/05 08:56:08;;;;;;;9.02;2.70;;;;;;;14.77;77.09;99731.09;4971899;28;20034;-81
2021/07/05 08:58:34;;;;;;;8.52;2.85;;;;;;;14.94;76.79;99729.41;4972551;28;20030;-81
2021/07/05 09:01:00;;;;;;;5.20;2.50;;;;;;;15.08;76.55;99722.75;4972961;28;20022;-81
2021/07/05 09:03:28;;;;;;;9.82;2.58;;;;;;;15.17;76.52;99723.25;4972341;28;20030;-81
2021/07/05 09:06:10;;;;;;;9.57;3.30;;;;;;;15.11;76.19;99722.28;4987335;28;20050;-82
2021/07/05 09:08:38;;;;;;;11.17;3.07;;;;;;;14.99;76.45;99726.84;4982232;28;20029;-82
2021/07/05 09:11:05;;;;;;;10.43;3.08;;;;;;;14.72;76.96;99727.19;4972977;28;20315;-81
2021/07/05 09:13:30;;;;;;;9.73;3.00;;;;;;;14.47;78.14;99719.16;4972606;28;20167;-82
2021/07/05 09:16:00;;;;;;;10.45;4.10;;;;;;;14.25;79.64;99717.97;4974749;28;20499;-81
2021/07/05 09:18:32;;;;;;;7.80;3.85;;;;;;;14.13;80.63;99725.16;4956572;28;20026;-81
2021/07/05 09:21:08;;;;;;;11.53;3.93;;;;;;;14.09;81.48;99724.78;4986371;28;20423;-82
2021/07/05 09:23:34;;;;;;;10.55;4.53;;;;;;;14.12;81.32;99723.50;4972558;28;20443;-82
2021/07/05 09:26:00;;;;;;;10.68;5.85;;;;;;;14.06;81.17;99715.25;4972379;28;20057;-81
2021/07/05 09:28:25;;;;;;;15.70;6.05;;;;;;;14.40;80.82;99714.88;4972449;28;20487;-81
2021/07/05 09:30:53;;;;;;;11.45;5.50;;;;;;;15.11;79.42;99703.34;4990003;28;20022;-81
2021/07/05 09:33:24;;;;;;;15.38;5.28;;;;;;;15.68;77.23;99708.25;4972726;28;20540;-81
2021/07/05 09:35:52;;;;;;;15.48;4.68;;;;;;;15.51;76.28;99694.59;4972124;28;20590;-82
2021/07/05 09:38:43;;;;;;;9.23;4.43;;;;;;;15.13;76.29;99709.31;4970840;28;20038;-81
2021/07/05 09:41:29;;;;;;;11.43;4.80;;;;;;;14.90;77.32;99720.91;4976410;28;20034;-81
2021/07/05 09:44:01;;;;;;;10.35;5.13;;;;;;;14.63;78.42;99712.34;4943833;28;20137;-81
2021/07/05 09:46:40;;;;;;;17.70;6.18;;;;;;;14.64;79.50;99722.09;4955374;28;20037;-81
2021/07/05 09:49:17;;;;;;;12.10;5.75;;;;;;;14.65;80.25;99717.50;4965269;28;20054;-82
2021/07/05 09:51:46;;;;;;;17.58;5.57;;;;;;;14.68;80.23;99715.16;4965638;28;20121;-82
2021/07/05 09:54:16;;;;;;;15.95;7.10;;;;;;;14.76;80.43;99715.91;4968225;28;20491;-81
2021/07/05 09:56:41;;;;;;;14.02;4.93;;;;;;;14.71;80.55;99700.34;4967988;28;20122;-81
2021/07/05 09:59:14;;;;;;;11.40;5.28;;;;;;;14.75;80.77;99712.38;4952813;28;20631;-82
2021/07/05 10:01:43;;;;;;;8.13;4.78;;;;;;;14.75;79.83;99712.38;4982097;28;20037;-82
2021/07/05 10:04:11;;;;;;;10.52;4.60;;;;;;;14.71;79.54;99711.19;4997782;28;20559;-81
2021/07/05 10:06:45;;;;;;;7.50;2.90;;;;;;;14.74;78.56;99713.44;4979525;28;20045;-81
2021/07/05 10:09:11;;;;;;;7.80;3.80;;;;;;;14.71;77.37;99720.16;4980325;28;20288;-81
2021/07/05 10:11:37;;;;;;;8.15;4.50;;;;;;;14.82;77.95;99718.53;4997674;28;20029;-81
2021/07/05 10:14:19;;;;;;;8.85;3.92;;;;;;;15.25;77.77;99712.09;4962503;28;20534;-82
2021/07/05 10:16:45;;;;;;;9.35;4.63;;;;;;;15.80;77.03;99708.28;4955937;28;20019;-82
2021/07/05 10:19:11;;;;;;;7.50;2.03;;;;;;;16.17;72.56;99708.84;4954566;28;20096;-82
2021/07/05 10:21:37;;;;;;;6.15;1.75;;;;;;;16.50;70.00;99704.66;4978806;28;20030;-81
2021/07/05 10:24:07;;;;;;;6.35;1.85;;;;;;;16.66;68.01;99701.16;4978058;28;20448;-82
2021/07/05 10:26:34;;;;;;;3.00;1.95;;;;;;;16.71;68.27;99700.44;4968312;28;20453;-82
2021/07/05 10:28:59;;;;;;;5.65;1.50;;;;;;;17.17;67.39;99686.91;5002313;28;20086;-82
2021/07/05 10:31:26;;;;;;;4.43;2.20;;;;;;;17.62;67.25;99688.72;4987163;28;20058;-82
2021/07/05 10:33:52;;;;;;;5.93;1.83;;;;;;;17.43;65.68;99688.97;4965089;28;20532;-81
2021/07/05 10:36:18;;;;;;;3.78;1.40;;;;;;;17.21;64.26;99696.22;4976277;28;20061;-81
2021/07/05 10:38:54;;;;;;;6.30;1.58;;;;;;;17.47;64.82;99708.34;4965385;28;20014;-82
2021/07/05 10:41:21;;;;;;;6.30;2.10;;;;;;;17.69;65.83;99684.78;5007114;28;20065;-82
2021/07/05 10:43:52;;;;;;;7.90;3.20;;;;;;;17.62;67.53;99700.41;4987613;28;20026;-82
2021/07/05 10:46:50;;;;;;;8.18;3.83;;;;;;;16.86;68.49;99703.50;4974986;28;20031;-80
2021/07/05 10:49:28;;;;;;;15.40;4.55;;;;;;;16.10;71.32;99708.16;4982065;28;20049;-81
2021/07/05 10:51:55;;;;;;;14.23;5.50;;;;;;;15.63;74.09;99701.88;4985575;28;20060;-82
2021/07/05 10:54:53;;;;;;;11.65;4.10;;;;;;;15.26;76.00;99708.31;4983689;28;20475;-81
2021/07/05 10:57:30;;;;;;;10.68;4.40;;;;;;;15.02;77.76;99709.31;4986544;28;20026;-82
2021/07/05 11:00:09;;;;;;;12.70;3.95;;;;;;;14.92;78.76;99702.56;5003280;28;20475;-82
2021/07/05 11:02:34;;;;;;;11.18;3.97;;;;;;;14.88;79.07;99711.38;5000960;28;20033;-81
2021/07/05 11:05:00;;;;;;;11.27;4.50;;;;;;;14.79;79.52;99697.34;4988998;28;20395;-81
2021/07/05 11:07:42;;;;;;;9.13;5.13;;;;;;;14.85;80.75;99695.59;4976762;28;20034;-81
2021/07/05 11:10:17;;;;;;;15.52;6.15;;;;;;;14.91;81.06;99705.50;5002643;28;20022;-81
2021/07/05 11:12:55;;;;;;;11.77;3.70;;;;;;;14.80;81.07;99704.41;5012417;28;20057;-82
2021/07/05 11:15:49;;;;;;;7.25;2.20;;;;;;;14.75;80.35;99714.28;4968764;28;20499;-81
2021/07/05 11:18:37;;;;;;;5.85;1.75;;;;;;;14.82;80.77;99709.56;5000346;28;20069;-81
2021/07/05 11:21:26;;;;;;;5.50;1.83;;;;;;;14.95;81.01;99696.69;5002980;28;20050;-82
2021/07/05 11:23:58;;;;;;;3.47;2.08;;;;;;;15.35;80.21;99690.69;4963855;28;20502;-81
2021/07/05 11:26:37;;;;;;;4.88;2.28;;;;;;;15.96;79.50;99685.88;4988314;28;20398;-82
2021/07/05 11:29:20;;;;;;;4.10;1.50;;;;;;;16.70;78.86;99675.19;4994368;28;20054;-82
2021/07/05 11:31:58;;;;;;;4.90;1.75;;;;;;;16.79;75.37;99672.13;5004024;28;20487;-82
2021/07/05 11:34:50;;;;;;;3.55;1.50;;;;;;;16.95;73.69;99676.75;4962425;28;20026;-82
2021/07/05 11:37:18;;;;;;;6.18;1.70;;;;;;;17.07;72.49;99666.66;4977364;28;20039;-83
2021/07/05 11:39:51;;;;;;;5.50;1.70;;;;;;;16.98;74.23;99665.41;4985366;28;20032;-81